createdAt,value
2023-10-26T00:00:37.780Z,11.55
2023-10-26T00:03:04.533Z,11.54
2023-10-26T00:05:31.104Z,11.53
2023-10-26T00:07:57.824Z,11.56
2023-10-26T00:10:24.299Z,11.56
2023-10-26T00:12:50.800Z,11.57
2023-10-26T00:15:17.279Z,11.57
2023-10-26T00:17:43.973Z,11.58
2023-10-26T00:20:10.970Z,11.59
2023-10-26T00:22:37.486Z,11.58
2023-10-26T00:25:04.264Z,11.60
2023-10-26T00:27:30.677Z,11.60
2023-10-26T00:29:57.112Z,11.61
2023-10-26T00:32:23.610Z,11.65
2023-10-26T00:34:51.823Z,11.66
2023-10-26T00:37:18.321Z,11.66
2023-10-26T00:39:45.224Z,11.67
2023-10-26T00:42:13.058Z,11.68
2023-10-26T00:44:39.598Z,11.68
2023-10-26T00:47:06.672Z,11.65
2023-10-26T00:49:33.720Z,11.66
2023-10-26T00:52:02.513Z,11.68
2023-10-26T00:54:29.640Z,11.65
2023-10-26T00:56:56.951Z,11.65
2023-10-26T00:59:27.757Z,11.63
2023-10-26T01:01:56.377Z,11.60
2023-10-26T01:04:22.891Z,11.58
2023-10-26T01:06:49.346Z,11.57
2023-10-26T01:09:16.073Z,11.56
2023-10-26T01:11:43.695Z,11.55
2023-10-26T01:14:10.392Z,11.54
2023-10-26T01:16:37.624Z,11.52
2023-10-26T01:19:05.319Z,11.51
2023-10-26T01:21:32.618Z,11.49
2023-10-26T01:23:59.038Z,11.47
2023-10-26T01:26:25.570Z,11.47
2023-10-26T01:28:51.979Z,11.46
2023-10-26T01:31:19.311Z,11.47
2023-10-26T01:33:46.620Z,11.45
2023-10-26T01:36:13.139Z,11.46
2023-10-26T01:38:39.678Z,11.47
2023-10-26T01:41:06.426Z,11.49
2023-10-26T01:43:33.050Z,11.49
2023-10-26T01:45:59.515Z,11.47
2023-10-26T01:48:27.155Z,11.47
2023-10-26T01:50:54.505Z,11.48
2023-10-26T01:53:24.760Z,11.47
2023-10-26T01:55:51.299Z,11.47
2023-10-26T01:58:17.744Z,11.46
2023-10-26T02:00:44.500Z,11.45
2023-10-26T02:03:11.091Z,11.43
2023-10-26T02:05:37.768Z,11.43
2023-10-26T02:08:04.376Z,11.44
2023-10-26T02:10:30.765Z,11.44
2023-10-26T02:12:57.960Z,11.43
2023-10-26T02:15:24.739Z,11.45
2023-10-26T02:17:51.498Z,11.44
2023-10-26T02:20:18.361Z,11.43
2023-10-26T02:22:44.863Z,11.43
2023-10-26T02:25:11.381Z,11.38
2023-10-26T02:27:37.791Z,11.40
2023-10-26T02:30:04.797Z,11.41
2023-10-26T02:32:31.419Z,11.40
2023-10-26T02:34:57.867Z,11.41
2023-10-26T02:37:24.406Z,11.38
2023-10-26T02:39:50.818Z,11.34
2023-10-26T02:42:17.288Z,11.33
2023-10-26T02:44:45.461Z,11.33
2023-10-26T02:47:12.063Z,11.34
2023-10-26T02:49:38.620Z,11.35
2023-10-26T02:52:05.457Z,11.32
2023-10-26T02:54:32.007Z,11.29
2023-10-26T02:56:58.605Z,11.28
2023-10-26T02:59:25.070Z,11.27
2023-10-26T03:01:51.659Z,11.23
2023-10-26T03:04:18.189Z,11.20
2023-10-26T03:06:44.703Z,11.23
2023-10-26T03:09:11.305Z,11.25
2023-10-26T03:11:37.977Z,11.23
2023-10-26T03:14:05.413Z,11.23
2023-10-26T03:16:33.549Z,11.25
2023-10-26T03:19:00.062Z,11.28
2023-10-26T03:21:26.568Z,11.32
2023-10-26T03:23:55.844Z,11.37
2023-10-26T03:26:23.212Z,11.31
2023-10-26T03:28:50.806Z,11.38
2023-10-26T03:31:17.827Z,11.34
2023-10-26T03:33:44.348Z,11.30
2023-10-26T03:36:23.405Z,11.25
2023-10-26T03:38:51.457Z,11.24
2023-10-26T03:41:21.209Z,11.26
2023-10-26T03:43:48.014Z,11.28
2023-10-26T03:46:15.655Z,11.28
2023-10-26T03:48:42.203Z,11.33
2023-10-26T03:51:10.268Z,11.36
2023-10-26T03:53:36.767Z,11.39
2023-10-26T03:56:03.557Z,11.41
2023-10-26T03:58:30.101Z,11.40
2023-10-26T04:00:58.006Z,11.35
2023-10-26T04:03:25.320Z,11.30
2023-10-26T04:05:51.829Z,11.29
2023-10-26T04:08:18.302Z,11.30
2023-10-26T04:10:45.160Z,11.29
2023-10-26T04:13:11.640Z,11.27
2023-10-26T04:15:38.047Z,11.26
2023-10-26T04:18:06.942Z,11.22
2023-10-26T04:20:33.509Z,11.20
2023-10-26T04:22:59.900Z,11.18
2023-10-26T04:25:42.170Z,11.21
2023-10-26T04:28:17.031Z,11.23
2023-10-26T04:30:50.233Z,11.27
2023-10-26T04:33:20.331Z,11.28
2023-10-26T04:35:48.449Z,11.31
2023-10-26T04:38:15.478Z,11.30
2023-10-26T04:40:43.643Z,11.26
2023-10-26T04:43:10.440Z,11.27
2023-10-26T04:45:37.046Z,11.26
2023-10-26T04:48:04.183Z,11.23
2023-10-26T04:50:33.618Z,11.22
2023-10-26T04:53:00.661Z,11.24
2023-10-26T04:55:35.128Z,11.24
2023-10-26T04:58:02.798Z,11.22
2023-10-26T05:00:32.267Z,11.21
2023-10-26T05:02:58.994Z,11.20
2023-10-26T05:05:25.720Z,11.22
2023-10-26T05:07:52.215Z,11.24
2023-10-26T05:10:18.892Z,11.23
2023-10-26T05:12:45.375Z,11.25
2023-10-26T05:15:11.921Z,11.27
2023-10-26T05:17:39.244Z,11.27
2023-10-26T05:20:06.812Z,11.29
2023-10-26T05:22:33.844Z,11.28
2023-10-26T05:25:06.464Z,11.26
2023-10-26T05:27:36.458Z,11.26
2023-10-26T05:30:04.007Z,11.25
2023-10-26T05:32:30.563Z,11.25
2023-10-26T05:34:57.021Z,11.24
2023-10-26T05:37:23.511Z,11.19
2023-10-26T05:39:49.931Z,11.17
2023-10-26T05:42:16.461Z,11.15
2023-10-26T05:44:43.187Z,11.15
2023-10-26T05:47:10.214Z,11.13
2023-10-26T05:49:36.914Z,11.11
2023-10-26T05:52:04.600Z,11.11
2023-10-26T05:54:31.156Z,11.10
2023-10-26T05:56:57.703Z,11.10
2023-10-26T05:59:24.237Z,11.10
2023-10-26T06:01:50.807Z,11.10
2023-10-26T06:04:17.377Z,11.09
2023-10-26T06:06:43.820Z,11.08
2023-10-26T06:09:11.768Z,11.06
2023-10-26T06:11:38.901Z,11.04
2023-10-26T06:14:05.668Z,11.05
2023-10-26T06:16:32.323Z,11.03
2023-10-26T06:18:58.812Z,11.04
2023-10-26T06:21:25.395Z,10.99
2023-10-26T06:23:51.877Z,10.96
2023-10-26T06:26:20.678Z,10.99
2023-10-26T06:28:49.847Z,10.99
2023-10-26T06:31:16.526Z,10.98
2023-10-26T06:33:44.178Z,10.92
2023-10-26T06:36:14.113Z,10.88
2023-10-26T06:38:41.814Z,10.88
2023-10-26T06:41:10.354Z,10.84
2023-10-26T06:43:38.271Z,10.79
2023-10-26T06:46:05.421Z,10.78
2023-10-26T06:48:32.295Z,10.76
2023-10-26T06:51:03.356Z,10.74
2023-10-26T06:53:30.624Z,10.70
2023-10-26T06:55:58.731Z,10.65
2023-10-26T06:58:25.459Z,10.61
2023-10-26T07:00:53.168Z,10.57
2023-10-26T07:03:21.367Z,10.55
2023-10-26T07:05:49.365Z,10.56
2023-10-26T07:08:16.737Z,10.60
2023-10-26T07:10:43.332Z,10.60
2023-10-26T07:13:09.784Z,10.58
2023-10-26T07:15:37.711Z,10.56
2023-10-26T07:18:05.565Z,10.56
2023-10-26T07:20:32.200Z,10.59
2023-10-26T07:22:58.645Z,10.60
2023-10-26T07:25:25.180Z,10.59
2023-10-26T07:27:51.913Z,10.58
2023-10-26T07:30:18.567Z,10.61
2023-10-26T07:32:45.192Z,10.63
2023-10-26T07:35:11.980Z,10.64
2023-10-26T07:37:41.294Z,10.68
2023-10-26T07:40:28.539Z,10.71
2023-10-26T07:42:55.000Z,10.69
2023-10-26T07:45:21.433Z,10.69
2023-10-26T07:47:48.001Z,10.71
2023-10-26T07:50:18.290Z,10.74
2023-10-26T07:52:44.822Z,10.75
2023-10-26T07:55:11.394Z,10.70
2023-10-26T07:57:38.204Z,10.69
2023-10-26T08:00:06.466Z,10.70
2023-10-26T08:02:34.538Z,10.74
2023-10-26T08:05:02.382Z,10.76
2023-10-26T08:07:28.991Z,10.79
2023-10-26T08:09:55.504Z,10.79
2023-10-26T08:12:21.972Z,10.78
2023-10-26T08:16:05.266Z,10.79
2023-10-26T08:17:38.972Z,10.80
2023-10-26T08:20:08.588Z,10.84
2023-10-26T08:22:36.247Z,10.84
2023-10-26T08:25:04.719Z,10.85
2023-10-26T08:27:32.512Z,10.87
2023-10-26T08:29:59.136Z,10.87
2023-10-26T08:32:25.750Z,10.85
2023-10-26T08:34:52.302Z,10.83
2023-10-26T08:37:19.099Z,10.83
2023-10-26T08:39:45.682Z,10.79
2023-10-26T08:42:13.827Z,10.81
2023-10-26T08:44:43.605Z,10.84
2023-10-26T08:47:13.354Z,10.89
2023-10-26T08:49:50.230Z,10.95
2023-10-26T08:52:23.486Z,10.99
2023-10-26T08:54:51.483Z,11.01
2023-10-26T08:57:18.012Z,10.99
2023-10-26T08:59:44.553Z,11.04
2023-10-26T09:02:11.242Z,11.05
2023-10-26T09:04:37.908Z,11.10
2023-10-26T09:07:04.555Z,11.12
2023-10-26T09:09:44.103Z,11.07
2023-10-26T09:12:11.001Z,10.98
2023-10-26T09:14:37.451Z,10.91
2023-10-26T09:17:05.099Z,10.89
2023-10-26T09:19:39.536Z,10.95
2023-10-26T09:22:08.643Z,10.97
2023-10-26T09:24:35.087Z,11.04
2023-10-26T09:27:01.735Z,11.12
2023-10-26T09:29:41.360Z,11.21
2023-10-26T09:32:09.638Z,11.21
2023-10-26T09:34:44.652Z,11.17
2023-10-26T09:37:11.852Z,11.16
2023-10-26T09:39:40.059Z,11.13
2023-10-26T09:42:12.155Z,11.14
2023-10-26T09:44:39.851Z,11.22
2023-10-26T09:47:07.778Z,11.29
2023-10-26T09:49:34.685Z,11.35
2023-10-26T09:52:01.272Z,11.35
2023-10-26T09:54:32.469Z,11.42
2023-10-26T09:57:22.447Z,11.51
2023-10-26T09:59:53.077Z,11.55
2023-10-26T10:02:20.812Z,11.65
2023-10-26T10:04:48.106Z,11.72
2023-10-26T10:07:19.003Z,11.81
2023-10-26T10:10:03.571Z,11.93
2023-10-26T10:12:30.054Z,11.94
2023-10-26T10:15:15.425Z,11.91
2023-10-26T10:17:45.543Z,11.92
2023-10-26T10:20:15.287Z,11.93
2023-10-26T10:22:41.661Z,12.01
2023-10-26T10:25:12.432Z,12.15
2023-10-26T10:27:40.265Z,12.47
2023-10-26T10:30:10.385Z,12.85
2023-10-26T10:32:46.244Z,13.08
2023-10-26T10:35:15.243Z,13.25
2023-10-26T10:38:20.301Z,13.28
2023-10-26T10:40:56.347Z,13.31
2023-10-26T10:43:44.591Z,13.34
2023-10-26T10:46:22.729Z,13.80
2023-10-26T10:48:59.205Z,14.39
2023-10-26T10:51:33.250Z,14.65
2023-10-26T10:54:06.141Z,14.69
2023-10-26T10:56:42.801Z,14.56
2023-10-26T10:59:35.681Z,14.43
2023-10-26T11:02:13.765Z,14.48
2023-10-26T11:05:05.265Z,14.70
2023-10-26T11:07:32.401Z,15.13
2023-10-26T11:10:00.497Z,15.81
2023-10-26T11:12:27.953Z,16.57
2023-10-26T11:14:55.134Z,17.05
2023-10-26T11:17:23.740Z,17.21
2023-10-26T11:19:51.288Z,17.65
2023-10-26T11:22:19.321Z,17.91
2023-10-26T11:24:46.641Z,18.37
2023-10-26T11:27:15.307Z,18.59
2023-10-26T11:29:42.650Z,18.51
2023-10-26T11:32:19.649Z,18.23
2023-10-26T11:35:14.548Z,18.56
2023-10-26T11:37:55.233Z,18.91
2023-10-26T11:40:30.712Z,19.06
2023-10-26T11:42:59.477Z,18.82
2023-10-26T11:45:27.830Z,18.61
2023-10-26T11:47:56.762Z,18.62
2023-10-26T11:50:24.419Z,18.81
2023-10-26T11:52:52.689Z,19.17
2023-10-26T11:55:20.657Z,19.47
2023-10-26T11:57:47.423Z,19.83
2023-10-26T12:00:15.468Z,20.09
2023-10-26T12:02:42.569Z,20.29
2023-10-26T12:05:13.235Z,20.37
2023-10-26T12:07:39.693Z,20.07
2023-10-26T12:10:06.528Z,19.63
2023-10-26T12:12:33.227Z,19.06
2023-10-26T12:14:59.660Z,18.73
2023-10-26T12:17:26.124Z,18.48
2023-10-26T12:19:52.678Z,18.20
2023-10-26T12:22:20.196Z,17.88
2023-10-26T12:24:46.807Z,17.50
2023-10-26T12:27:17.364Z,17.21
2023-10-26T12:29:44.784Z,17.00
2023-10-26T12:32:11.945Z,16.74
2023-10-26T12:34:38.723Z,16.57
2023-10-26T12:37:05.936Z,16.36
2023-10-26T12:39:33.674Z,16.11
2023-10-26T12:42:01.196Z,15.93
2023-10-26T12:44:28.063Z,15.76
2023-10-26T12:46:55.321Z,15.60
2023-10-26T12:49:24.578Z,15.41
2023-10-26T12:51:51.992Z,15.34
2023-10-26T12:54:19.190Z,15.28
2023-10-26T12:56:45.937Z,15.26
2023-10-26T12:59:12.839Z,15.20
2023-10-26T13:01:40.294Z,15.13
2023-10-26T13:04:06.986Z,15.04
2023-10-26T13:06:34.651Z,14.88
2023-10-26T13:09:02.498Z,14.74
2023-10-26T13:11:29.002Z,14.69
2023-10-26T13:13:55.644Z,14.72
2023-10-26T13:16:23.377Z,14.73
2023-10-26T13:18:50.758Z,14.72
2023-10-26T13:21:18.690Z,14.70
2023-10-26T13:23:45.762Z,14.74
2023-10-26T13:26:12.255Z,14.69
2023-10-26T13:28:38.736Z,14.71
2023-10-26T13:31:07.178Z,14.74
2023-10-26T13:33:34.712Z,14.75
2023-10-26T13:36:01.224Z,14.74
2023-10-26T13:38:27.679Z,14.66
2023-10-26T13:40:55.105Z,14.65
2023-10-26T13:43:21.576Z,14.61
2023-10-26T13:45:48.133Z,14.59
2023-10-26T13:48:16.108Z,14.58
2023-10-26T13:50:44.479Z,14.59
2023-10-26T13:53:12.673Z,14.58
2023-10-26T13:55:39.125Z,14.55
2023-10-26T13:58:08.706Z,14.47
2023-10-26T14:00:38.690Z,14.39
2023-10-26T14:03:05.768Z,14.35
2023-10-26T14:05:32.441Z,14.30
2023-10-26T14:07:59.600Z,14.26
2023-10-26T14:10:26.630Z,14.24
2023-10-26T14:12:53.455Z,14.22
2023-10-26T14:15:20.565Z,14.24
2023-10-26T14:17:47.259Z,14.16
2023-10-26T14:20:13.749Z,14.18
2023-10-26T14:22:40.199Z,14.19
2023-10-26T14:25:07.176Z,14.14
2023-10-26T14:27:35.170Z,14.13
2023-10-26T14:30:01.684Z,14.08
2023-10-26T14:32:28.255Z,14.04
2023-10-26T14:34:54.733Z,14.06
2023-10-26T14:37:21.182Z,14.09
2023-10-26T14:39:47.678Z,14.12
2023-10-26T14:42:16.258Z,14.20
2023-10-26T14:44:47.734Z,14.25
2023-10-26T14:47:14.273Z,14.28
2023-10-26T14:49:40.769Z,14.28
2023-10-26T14:52:07.420Z,14.29
2023-10-26T14:54:34.041Z,14.22
2023-10-26T14:57:01.261Z,14.24
2023-10-26T14:59:27.710Z,14.25
2023-10-26T15:01:54.168Z,14.16
2023-10-26T15:04:20.658Z,14.22
2023-10-26T15:06:49.378Z,14.16
2023-10-26T15:10:20.040Z,14.07
2023-10-26T15:12:02.551Z,14.01
2023-10-26T15:14:29.034Z,13.95
2023-10-26T15:16:55.880Z,13.97
2023-10-26T15:19:22.860Z,13.83
2023-10-26T15:21:49.428Z,13.77
2023-10-26T15:24:16.009Z,13.76
2023-10-26T15:26:42.455Z,13.74
2023-10-26T15:29:08.968Z,13.69
2023-10-26T15:31:35.463Z,13.64
2023-10-26T15:34:01.908Z,13.59
2023-10-26T15:36:28.461Z,13.55
2023-10-26T15:38:55.167Z,13.44
2023-10-26T15:41:21.577Z,13.39
2023-10-26T15:43:48.035Z,13.43
2023-10-26T15:46:14.831Z,13.39
2023-10-26T15:49:32.847Z,13.41
2023-10-26T15:51:27.889Z,13.40
2023-10-26T15:53:54.317Z,13.43
2023-10-26T15:56:20.811Z,13.40
2023-10-26T15:58:54.581Z,13.40
2023-10-26T16:01:21.807Z,13.38
2023-10-26T16:03:48.338Z,13.39
2023-10-26T16:06:15.403Z,13.37
2023-10-26T16:08:42.691Z,13.34
2023-10-26T16:11:13.785Z,13.33
2023-10-26T16:13:43.811Z,13.33
2023-10-26T16:16:10.360Z,13.33
2023-10-26T16:18:36.902Z,13.32
2023-10-26T16:21:03.694Z,13.30
2023-10-26T16:23:30.372Z,13.30
2023-10-26T16:25:56.911Z,13.29
2023-10-26T16:28:23.304Z,13.20
2023-10-26T16:30:56.661Z,13.11
2023-10-26T16:33:23.438Z,13.05
2023-10-26T16:35:49.888Z,13.12
2023-10-26T16:38:16.387Z,13.12
2023-10-26T16:40:43.826Z,13.10
2023-10-26T16:43:10.416Z,13.08
2023-10-26T16:45:37.695Z,13.08
2023-10-26T16:48:05.168Z,13.07
2023-10-26T16:50:31.741Z,13.02
2023-10-26T16:53:01.093Z,12.97
2023-10-26T16:55:28.183Z,12.97
2023-10-26T16:57:54.967Z,13.00
2023-10-26T17:00:21.486Z,13.00
2023-10-26T17:02:48.487Z,13.05
2023-10-26T17:05:14.996Z,13.05
2023-10-26T17:07:43.209Z,13.04
2023-10-26T17:10:10.482Z,13.05
2023-10-26T17:12:42.306Z,13.08
2023-10-26T17:15:10.836Z,13.05
2023-10-26T17:17:37.289Z,13.05
2023-10-26T17:20:04.524Z,13.02
2023-10-26T17:22:30.986Z,13.02
2023-10-26T17:24:57.520Z,13.00
2023-10-26T17:27:30.310Z,13.01
2023-10-26T17:29:56.825Z,13.01
2023-10-26T17:32:23.259Z,13.01
2023-10-26T17:34:49.990Z,13.01
2023-10-26T17:37:16.697Z,12.99
2023-10-26T17:39:43.584Z,13.00
2023-10-26T17:42:10.232Z,13.00
2023-10-26T17:44:36.730Z,13.01
2023-10-26T17:47:03.479Z,13.05
2023-10-26T17:49:29.981Z,13.05
2023-10-26T17:51:56.434Z,13.06
2023-10-26T17:54:22.931Z,13.06
2023-10-26T17:56:49.407Z,13.06
2023-10-26T17:59:15.932Z,13.05
2023-10-26T18:01:42.468Z,13.03
2023-10-26T18:04:09.733Z,12.99
2023-10-26T18:06:36.331Z,13.00
2023-10-26T18:09:02.841Z,13.00
2023-10-26T18:11:29.329Z,12.98
2023-10-26T18:13:55.793Z,12.96
2023-10-26T18:16:22.371Z,12.95
2023-10-26T18:18:48.911Z,12.93
2023-10-26T18:21:15.471Z,12.91
2023-10-26T18:23:42.146Z,12.91
2023-10-26T18:26:10.968Z,12.88
2023-10-26T18:28:41.217Z,12.84
2023-10-26T18:31:17.029Z,12.80
2023-10-26T18:33:49.747Z,12.74
2023-10-26T18:36:18.732Z,12.71
2023-10-26T18:38:45.993Z,12.68
2023-10-26T18:41:20.217Z,12.59
2023-10-26T18:43:48.715Z,12.64
2023-10-26T18:46:15.411Z,12.63
2023-10-26T18:48:42.003Z,12.61
2023-10-26T18:51:09.560Z,12.61
2023-10-26T18:53:37.168Z,12.60
2023-10-26T18:56:07.119Z,12.58
2023-10-26T18:58:34.670Z,12.60
2023-10-26T19:01:01.111Z,12.60
2023-10-26T19:03:27.734Z,12.58
2023-10-26T19:05:54.147Z,12.59
2023-10-26T19:08:20.766Z,12.57
2023-10-26T19:10:48.015Z,12.56
2023-10-26T19:13:15.078Z,12.54
2023-10-26T19:15:41.919Z,12.55
2023-10-26T19:18:08.534Z,12.50
2023-10-26T19:20:47.668Z,12.50
2023-10-26T19:23:14.224Z,12.48
2023-10-26T19:25:41.412Z,12.51
2023-10-26T19:28:07.921Z,12.53
2023-10-26T19:30:34.429Z,12.49
2023-10-26T19:33:01.324Z,12.47
2023-10-26T19:35:29.198Z,12.51
2023-10-26T19:37:56.498Z,12.52
2023-10-26T19:40:23.632Z,12.48
2023-10-26T19:42:50.484Z,12.43
2023-10-26T19:45:17.174Z,12.43
2023-10-26T19:47:44.284Z,12.42
2023-10-26T19:50:11.923Z,12.44
2023-10-26T19:52:39.069Z,12.43
2023-10-26T19:55:09.908Z,12.44
2023-10-26T19:57:36.826Z,12.41
2023-10-26T20:00:07.792Z,12.44
2023-10-26T20:02:34.351Z,12.46
2023-10-26T20:05:00.964Z,12.44
2023-10-26T20:07:27.552Z,12.44
2023-10-26T20:09:54.047Z,12.45
2023-10-26T20:12:20.878Z,12.38
2023-10-26T20:14:47.455Z,12.47
2023-10-26T20:17:14.014Z,12.45
2023-10-26T20:19:40.558Z,12.46
2023-10-26T20:22:08.443Z,12.50
2023-10-26T20:24:34.921Z,12.50
2023-10-26T20:27:04.702Z,12.48
2023-10-26T20:29:31.174Z,12.46
2023-10-26T20:31:58.968Z,12.48
2023-10-26T20:34:25.910Z,12.47
2023-10-26T20:36:52.663Z,12.47
2023-10-26T20:39:19.205Z,12.47
2023-10-26T20:41:45.814Z,12.47
2023-10-26T20:44:15.338Z,12.45
2023-10-26T20:46:41.825Z,12.49
2023-10-26T20:49:12.178Z,12.45
2023-10-26T20:51:40.730Z,12.43
2023-10-26T20:54:07.651Z,12.39
2023-10-26T20:56:34.084Z,12.39
2023-10-26T20:59:00.649Z,12.38
2023-10-26T21:01:27.366Z,12.35
2023-10-26T21:03:53.878Z,12.34
2023-10-26T21:06:20.568Z,12.36
2023-10-26T21:08:49.840Z,12.35
2023-10-26T21:11:17.807Z,12.37
2023-10-26T21:13:44.695Z,12.39
2023-10-26T21:16:11.345Z,12.39
2023-10-26T21:18:37.930Z,12.37
2023-10-26T21:21:08.470Z,12.35
2023-10-26T21:23:36.436Z,12.31
2023-10-26T21:26:07.215Z,12.28
2023-10-26T21:28:35.227Z,12.28
2023-10-26T21:31:02.218Z,12.28
2023-10-26T21:33:31.786Z,12.27
2023-10-26T21:35:58.322Z,12.28
2023-10-26T21:38:24.928Z,12.29
2023-10-26T21:40:51.433Z,12.27
2023-10-26T21:43:18.010Z,12.28
2023-10-26T21:45:47.278Z,12.28
2023-10-26T21:48:14.753Z,12.28
2023-10-26T21:50:41.868Z,12.27
2023-10-26T21:53:09.184Z,12.29
2023-10-26T21:55:38.383Z,12.28
2023-10-26T21:58:05.073Z,12.27
2023-10-26T22:00:32.242Z,12.25
2023-10-26T22:02:58.906Z,12.21
2023-10-26T22:05:26.909Z,12.17
2023-10-26T22:07:53.677Z,12.16
2023-10-26T22:10:20.666Z,12.12
2023-10-26T22:12:47.286Z,12.12
2023-10-26T22:15:13.878Z,12.09
2023-10-26T22:17:41.846Z,12.06
2023-10-26T22:20:09.620Z,12.04
2023-10-26T22:22:37.682Z,12.04
2023-10-26T22:25:04.775Z,12.05
2023-10-26T22:27:31.882Z,12.06
2023-10-26T22:29:58.386Z,12.06
2023-10-26T22:32:25.283Z,12.04
2023-10-26T22:34:52.338Z,12.05
2023-10-26T22:37:19.666Z,12.05
2023-10-26T22:39:46.469Z,12.05
2023-10-26T22:42:13.151Z,12.06
2023-10-26T22:44:42.649Z,12.09
2023-10-26T22:47:09.114Z,12.12
2023-10-26T22:49:35.633Z,12.13
2023-10-26T22:52:02.152Z,12.12
2023-10-26T22:54:28.561Z,12.14
2023-10-26T22:56:55.008Z,12.13
2023-10-26T22:59:21.853Z,12.14
2023-10-26T23:01:48.802Z,12.14
2023-10-26T23:04:15.671Z,12.12
2023-10-26T23:06:42.378Z,12.12
2023-10-26T23:09:10.136Z,12.11
2023-10-26T23:11:36.664Z,12.12
2023-10-26T23:14:03.161Z,12.12
2023-10-26T23:16:29.738Z,12.12
2023-10-26T23:18:56.966Z,12.08
2023-10-26T23:21:23.556Z,12.07
2023-10-26T23:23:49.991Z,12.06
2023-10-26T23:26:16.636Z,11.99
2023-10-26T23:28:43.122Z,11.98
2023-10-26T23:31:10.843Z,11.97
2023-10-26T23:33:37.944Z,11.94
2023-10-26T23:36:10.283Z,11.96
2023-10-26T23:38:37.140Z,11.94
2023-10-26T23:41:04.056Z,11.93
2023-10-26T23:43:30.510Z,11.92
2023-10-26T23:45:58.860Z,11.90
2023-10-26T23:48:25.722Z,11.83
2023-10-26T23:50:52.425Z,11.94
2023-10-26T23:53:19.832Z,11.95
2023-10-26T23:55:47.052Z,11.98
2023-10-26T23:58:13.868Z,11.99
